Time;durP1;ratioP1;P1;durP2;ratioP2;P2;SDS_P1;SDS_P2;PMS_P1;PMS_P2;Temp;Humidity;BMP_temperature;BMP_pressure;BME280_temperature;BME280_humidity;BME280_pressure;Samples;Min_cycle;Max_cycle;Signal;HPM_P1;HPM_P2
2021/10/04 00:02:07;;;;;;;13.65;4.43;;;;;;;12.02;52.02;101386.06;5015660;28;20026;-68
2021/10/04 00:04:32;;;;;;;9.00;4.40;;;;;;;11.99;52.15;101380.75;5013386;28;20022;-67
2021/10/04 00:06:58;;;;;;;8.65;4.32;;;;;;;11.83;52.21;101340.31;5022941;28;20032;-67
2021/10/04 00:09:24;;;;;;;11.88;4.55;;;;;;;12.06;52.47;101369.88;5017665;28;20400;-68
2021/10/04 00:11:51;;;;;;;10.40;4.28;;;;;;;12.03;52.50;101376.63;5015741;28;20034;-67
2021/10/04 00:14:20;;;;;;;9.20;4.95;;;;;;;11.85;53.68;101377.50;5013976;28;20509;-69
2021/10/04 00:16:46;;;;;;;10.98;4.57;;;;;;;11.76;54.91;101375.38;5014095;28;20033;-66
2021/10/04 00:19:12;;;;;;;8.55;4.50;;;;;;;11.54;56.42;101370.00;5023049;28;20063;-68
2021/10/04 00:21:37;;;;;;;7.75;4.25;;;;;;;11.33;55.97;101350.94;5032368;28;20402;-71
2021/10/04 00:24:03;;;;;;;12.48;4.13;;;;;;;10.95;57.32;101374.91;5031670;28;20404;-65
2021/10/04 00:26:31;;;;;;;8.82;4.57;;;;;;;11.06;57.30;101378.03;5032381;28;20044;-70
2021/10/04 00:28:56;;;;;;;13.68;4.03;;;;;;;11.13;56.35;101360.31;5032188;28;20029;-68
2021/10/04 00:31:22;;;;;;;14.02;4.55;;;;;;;11.38;55.72;101356.34;5031414;28;20026;-70
2021/10/04 00:33:47;;;;;;;9.75;4.55;;;;;;;11.32;57.17;101376.72;5031389;28;20041;-69
2021/10/04 00:36:13;;;;;;;12.90;4.63;;;;;;;11.20;57.58;101363.22;5031648;28;20033;-72
2021/10/04 00:38:38;;;;;;;8.18;4.07;;;;;;;11.31;57.29;101378.44;5031122;28;20488;-69
2021/10/04 00:41:04;;;;;;;9.00;4.28;;;;;;;11.06;58.18;101383.22;5028212;28;20447;-71
2021/10/04 00:43:30;;;;;;;10.98;4.82;;;;;;;10.98;58.81;101382.84;5030940;28;20036;-70
2021/10/04 00:45:55;;;;;;;9.77;3.95;;;;;;;11.05;58.49;101384.03;4989127;28;20461;-70
2021/10/04 00:48:21;;;;;;;9.18;4.43;;;;;;;11.00;58.47;101378.63;4989344;28;20482;-67
2021/10/04 00:50:46;;;;;;;8.30;4.72;;;;;;;10.79;58.69;101339.69;4989066;28;20042;-67
2021/10/04 00:53:12;;;;;;;10.10;4.57;;;;;;;11.24;57.73;101378.06;4989181;28;20030;-69
2021/10/04 00:55:38;;;;;;;10.25;4.25;;;;;;;11.32;55.25;101362.09;4989292;28;20034;-69
2021/10/04 00:58:05;;;;;;;19.98;5.80;;;;;;;11.54;54.20;101367.41;4989309;28;20033;-70
2021/10/04 01:00:31;;;;;;;12.70;3.97;;;;;;;11.41;54.71;101322.00;4989209;28;20121;-71
2021/10/04 01:02:57;;;;;;;6.70;3.97;;;;;;;11.47;54.30;101335.22;4988721;28;20496;-69
2021/10/04 01:05:23;;;;;;;15.05;4.72;;;;;;;11.49;53.46;101365.50;4989262;28;20038;-69
2021/10/04 01:07:48;;;;;;;13.27;4.25;;;;;;;11.22;54.44;101325.41;4989373;28;20049;-70
2021/10/04 01:10:15;;;;;;;8.05;4.25;;;;;;;11.30;54.86;101353.41;4989184;28;20026;-71
2021/10/04 01:12:44;;;;;;;8.57;4.25;;;;;;;11.24;53.76;101373.78;4989191;28;20066;-70
2021/10/04 01:15:11;;;;;;;16.55;4.50;;;;;;;11.10;53.23;101374.78;4988883;28;20041;-70
2021/10/04 01:17:37;;;;;;;11.55;3.95;;;;;;;11.15;53.15;101370.72;5008407;28;20088;-74
2021/10/04 01:20:20;;;;;;;11.32;4.18;;;;;;;11.19;52.56;101357.16;5011820;28;20447;-73
2021/10/04 01:22:46;;;;;;;12.40;4.28;;;;;;;11.28;53.34;101359.31;5011350;28;20021;-73
2021/10/04 01:25:15;;;;;;;11.18;3.92;;;;;;;11.04;53.77;101346.06;5013494;28;20502;-73
2021/10/04 01:27:42;;;;;;;9.70;4.22;;;;;;;11.26;53.84;101368.69;5014818;28;20030;-71
2021/10/04 01:30:10;;;;;;;9.68;4.28;;;;;;;11.08;53.83;101330.78;5012883;28;20049;-68
2021/10/04 01:32:36;;;;;;;10.82;4.15;;;;;;;11.30;54.13;101366.31;5013169;28;20572;-70
2021/10/04 01:35:04;;;;;;;9.15;4.70;;;;;;;11.25;54.65;101351.41;5011866;28;20113;-70
2021/10/04 01:37:29;;;;;;;10.57;4.05;;;;;;;11.26;55.33;101371.25;5011999;28;20040;-69
2021/10/04 01:39:55;;;;;;;15.10;4.50;;;;;;;10.99;56.32;101366.50;5011045;28;20037;-68
2021/10/04 01:42:20;;;;;;;12.48;4.45;;;;;;;10.34;57.83;101370.94;5014507;28;20026;-70
2021/10/04 01:48:08;;;;;;;7.75;4.25;;;;;;;10.30;58.08;101379.34;5277882;23;20065;-69
2021/10/04 01:50:35;;;;;;;13.50;4.68;;;;;;;10.43;57.57;101365.41;5012273;28;20428;-68
2021/10/04 01:53:01;;;;;;;13.60;4.22;;;;;;;10.29;57.54;101370.72;5012096;28;20026;-69
2021/10/04 01:55:27;;;;;;;12.70;4.25;;;;;;;10.15;58.00;101356.19;5011858;28;20030;-72
2021/10/04 01:57:52;;;;;;;14.07;4.10;;;;;;;10.13;58.06;101376.75;5011750;28;20412;-69
2021/10/04 02:00:20;;;;;;;15.73;4.72;;;;;;;10.11;58.37;101380.06;5012070;28;20109;-69
2021/10/04 02:02:48;;;;;;;11.98;4.32;;;;;;;9.93;58.26;101341.25;5009889;28;20033;-70
2021/10/04 02:05:15;;;;;;;9.25;4.32;;;;;;;10.31;58.08;101379.41;5011721;28;20044;-69
2021/10/04 02:07:40;;;;;;;9.32;4.40;;;;;;;10.28;57.82;101371.53;5009658;28;20129;-71
2021/10/04 02:10:11;;;;;;;17.17;4.15;;;;;;;10.40;55.85;101379.03;5005016;28;20665;-71
2021/10/04 02:12:36;;;;;;;14.35;4.53;;;;;;;10.31;55.96;101365.63;4976978;28;20022;-68
2021/10/04 02:15:04;;;;;;;14.23;4.47;;;;;;;10.41;55.28;101382.53;4991732;28;20081;-69
2021/10/04 02:17:31;;;;;;;29.70;4.80;;;;;;;10.57;54.99;101377.34;4991804;28;20022;-70
2021/10/04 02:19:57;;;;;;;18.27;4.80;;;;;;;10.56;55.50;101366.94;4991749;28;20026;-71
2021/10/04 02:22:23;;;;;;;12.88;4.22;;;;;;;10.56;55.94;101382.44;4991809;28;20015;-71
2021/10/04 02:24:48;;;;;;;8.60;4.75;;;;;;;9.84;59.18;101368.34;4991697;28;20022;-73
2021/10/04 02:27:14;;;;;;;9.25;4.25;;;;;;;10.01;59.33;101386.41;4999312;28;20036;-69
2021/10/04 02:29:39;;;;;;;10.43;4.22;;;;;;;9.37;61.02;101351.09;5002105;28;20022;-69
2021/10/04 02:32:06;;;;;;;7.53;4.35;;;;;;;9.76;60.35;101377.34;4993114;28;20524;-69
2021/10/04 02:34:32;;;;;;;10.05;4.50;;;;;;;9.93;60.19;101395.41;4974171;28;20030;-68
2021/10/04 02:36:57;;;;;;;11.00;4.95;;;;;;;9.76;61.15;101392.81;4991582;28;20113;-68
2021/10/04 02:39:22;;;;;;;8.15;3.97;;;;;;;9.83;60.83;101394.94;4991733;28;20117;-70
2021/10/04 02:41:48;;;;;;;12.45;4.55;;;;;;;9.93;60.68;101392.84;4991797;28;20134;-68
2021/10/04 02:44:16;;;;;;;12.32;4.82;;;;;;;9.88;60.51;101390.91;4991744;28;20474;-68
2021/10/04 02:46:42;;;;;;;8.63;4.20;;;;;;;9.94;61.12;101392.03;4991533;28;20049;-68
2021/10/04 02:49:08;;;;;;;11.77;4.40;;;;;;;9.88;61.46;101396.06;4991788;28;20068;-69
2021/10/04 02:51:34;;;;;;;10.13;4.35;;;;;;;9.82;61.68;101395.72;4991413;28;20465;-69
2021/10/04 02:53:59;;;;;;;9.23;4.97;;;;;;;9.62;62.37;101386.00;4991482;28;20033;-68
2021/10/04 02:56:25;;;;;;;8.32;4.97;;;;;;;9.71;62.32;101391.69;5008698;28;20042;-68
2021/10/04 02:58:50;;;;;;;8.57;4.28;;;;;;;9.68;62.64;101386.34;5011190;28;20029;-69
2021/10/04 03:01:16;;;;;;;8.38;4.47;;;;;;;9.66;62.35;101383.69;5011140;28;20101;-71
2021/10/04 03:03:41;;;;;;;9.55;4.53;;;;;;;9.81;62.51;101393.94;5012943;28;20030;-72
2021/10/04 03:06:07;;;;;;;11.45;5.15;;;;;;;9.69;62.78;101394.19;5009559;28;20041;-69
2021/10/04 03:08:32;;;;;;;11.93;4.53;;;;;;;9.65;63.38;101378.44;5013818;28;20026;-69
2021/10/04 03:10:58;;;;;;;9.05;4.60;;;;;;;9.74;63.80;101388.38;4999514;28;20034;-69
2021/10/04 03:13:23;;;;;;;8.02;4.25;;;;;;;9.96;62.73;101385.28;5014354;28;20060;-70
2021/10/04 03:15:49;;;;;;;9.88;4.53;;;;;;;10.03;59.30;101380.53;5014343;28;20068;-70
2021/10/04 03:18:14;;;;;;;14.20;4.65;;;;;;;10.08;58.03;101378.22;4996552;28;20030;-70
2021/10/04 03:20:40;;;;;;;11.50;4.78;;;;;;;9.95;57.95;101347.38;4998690;28;20034;-70
2021/10/04 03:23:07;;;;;;;11.95;4.65;;;;;;;10.13;57.91;101391.31;4994167;28;20022;-70
2021/10/04 03:25:33;;;;;;;16.45;4.68;;;;;;;10.27;57.57;101390.38;4994319;28;20026;-69
2021/10/04 03:27:59;;;;;;;24.30;5.40;;;;;;;10.35;57.15;101388.19;4994440;28;20033;-69
2021/10/04 03:30:25;;;;;;;16.08;4.93;;;;;;;10.42;57.35;101392.91;4994394;28;20030;-69
2021/10/04 03:32:51;;;;;;;14.13;4.22;;;;;;;10.36;57.04;101392.59;4997965;28;20108;-69
2021/10/04 03:35:17;;;;;;;16.48;4.20;;;;;;;10.37;56.85;101396.97;5013761;28;20088;-69
2021/10/04 03:37:43;;;;;;;13.18;4.28;;;;;;;10.34;56.33;101394.16;5013755;28;20036;-69
2021/10/04 03:40:09;;;;;;;13.52;4.47;;;;;;;10.37;56.03;101404.69;5013810;28;20034;-69
2021/10/04 03:42:35;;;;;;;10.70;3.90;;;;;;;10.30;56.41;101406.00;5013686;28;20116;-70
2021/10/04 03:45:01;;;;;;;9.27;4.13;;;;;;;10.36;56.87;101396.06;5013587;28;20122;-70
2021/10/04 03:47:26;;;;;;;15.27;4.15;;;;;;;10.22;57.02;101370.28;5013912;28;20111;-68
2021/10/04 03:49:52;;;;;;;10.57;4.57;;;;;;;10.12;57.99;101400.78;5013461;28;20120;-71
2021/10/04 03:52:17;;;;;;;9.80;4.10;;;;;;;10.24;58.03;101404.81;5013217;28;20040;-70
2021/10/04 03:54:43;;;;;;;16.83;4.80;;;;;;;10.06;57.74;101377.22;5013533;28;20030;-70
2021/10/04 03:57:08;;;;;;;21.15;4.80;;;;;;;10.12;57.79;101362.06;5013525;28;20053;-69
2021/10/04 03:59:33;;;;;;;12.50;4.78;;;;;;;10.07;57.75;101362.63;5012999;28;20030;-69
2021/10/04 04:01:59;;;;;;;12.38;4.32;;;;;;;9.85;58.41;101380.41;5001995;28;20153;-69
2021/10/04 04:04:24;;;;;;;13.27;4.75;;;;;;;9.73;58.49;101397.78;4993621;28;20053;-69
2021/10/04 04:06:50;;;;;;;14.55;4.90;;;;;;;9.81;58.01;101398.22;4993728;28;20077;-69
2021/10/04 04:09:15;;;;;;;17.33;4.45;;;;;;;9.96;57.29;101417.13;5006084;28;20092;-69
2021/10/04 04:11:41;;;;;;;9.98;4.20;;;;;;;10.11;57.36;101413.59;5013369;28;20034;-69
2021/10/04 04:14:06;;;;;;;10.80;3.90;;;;;;;10.09;57.76;101417.78;5012567;28;20038;-72
2021/10/04 04:16:32;;;;;;;14.85;4.00;;;;;;;9.94;57.96;101399.78;5005161;28;20051;-69
2021/10/04 04:18:58;;;;;;;12.65;4.45;;;;;;;9.41;59.00;101375.38;5004704;28;20038;-68
2021/10/04 04:21:23;;;;;;;21.40;4.60;;;;;;;9.62;59.67;101427.25;5013003;28;20112;-70
2021/10/04 04:23:49;;;;;;;9.77;4.20;;;;;;;9.76;59.34;101428.91;5012492;28;20057;-68
2021/10/04 04:26:15;;;;;;;11.63;3.97;;;;;;;9.86;58.67;101427.75;5003374;28;20084;-70
2021/10/04 04:28:40;;;;;;;7.28;3.85;;;;;;;9.95;58.28;101425.66;5012590;28;20037;-74
2021/10/04 04:31:06;;;;;;;14.70;4.15;;;;;;;9.97;58.38;101425.72;5010475;28;20076;-70
2021/10/04 04:33:31;;;;;;;13.25;3.92;;;;;;;10.05;57.99;101432.19;5012887;28;20409;-70
2021/10/04 04:35:57;;;;;;;27.20;4.85;;;;;;;9.87;57.70;101390.84;5010627;28;20038;-76
2021/10/04 04:38:22;;;;;;;12.13;4.68;;;;;;;10.19;57.79;101422.63;5012832;28;20029;-70
2021/10/04 04:40:48;;;;;;;12.15;4.40;;;;;;;10.17;57.84;101424.25;5010917;28;20030;-70
2021/10/04 04:43:13;;;;;;;11.00;5.03;;;;;;;10.17;57.80;101430.28;5002514;28;20031;-70
2021/10/04 04:45:39;;;;;;;14.98;5.03;;;;;;;10.17;57.97;101430.28;5010588;28;20508;-69
2021/10/04 04:48:05;;;;;;;15.45;5.13;;;;;;;10.20;58.67;101424.41;5012796;28;20416;-69
2021/10/04 04:50:30;;;;;;;28.13;5.57;;;;;;;10.15;58.54;101419.00;5012471;28;20038;-71
2021/10/04 04:52:56;;;;;;;15.52;4.40;;;;;;;9.80;60.06;101436.00;4996113;28;20495;-69
2021/10/04 04:55:21;;;;;;;54.42;8.65;;;;;;;9.76;60.69;101426.34;4997936;28;20092;-70
2021/10/04 04:57:47;;;;;;;13.73;4.70;;;;;;;9.43;62.24;101428.78;5012448;28;20034;-70
2021/10/04 05:00:15;;;;;;;11.18;5.35;;;;;;;9.40;62.78;101431.19;4989374;28;20044;-69
2021/10/04 05:02:44;;;;;;;10.70;4.95;;;;;;;9.46;62.71;101431.53;5003564;28;20073;-69
2021/10/04 05:05:12;;;;;;;13.90;5.85;;;;;;;9.51;62.96;101435.25;5000878;28;20108;-72
2021/10/04 05:07:38;;;;;;;12.10;5.20;;;;;;;9.47;63.42;101438.47;5002259;28;20423;-70
2021/10/04 05:10:05;;;;;;;11.40;5.07;;;;;;;9.67;62.87;101439.59;5002784;28;20026;-68
2021/10/04 05:12:31;;;;;;;15.43;5.18;;;;;;;9.49;62.83;101394.75;5000860;28;20026;-69
2021/10/04 05:14:56;;;;;;;13.80;4.63;;;;;;;9.88;62.60;101436.44;5002263;28;20136;-69
2021/10/04 05:17:22;;;;;;;13.98;4.75;;;;;;;9.98;62.06;101435.25;5002979;28;20030;-71
2021/10/04 05:19:47;;;;;;;14.73;4.97;;;;;;;10.14;61.79;101436.97;5003066;28;20045;-69
2021/10/04 05:22:13;;;;;;;17.73;5.45;;;;;;;10.23;61.54;101434.00;5002173;28;20045;-70
2021/10/04 05:24:38;;;;;;;19.02;6.15;;;;;;;10.28;61.12;101423.13;5001460;28;20030;-70
2021/10/04 05:27:04;;;;;;;21.33;7.97;;;;;;;10.49;61.53;101438.91;5000980;28;20034;-70
2021/10/04 05:29:30;;;;;;;33.47;14.00;;;;;;;10.46;61.51;101449.06;5002821;28;20088;-69
2021/10/04 05:31:55;;;;;;;62.90;21.50;;;;;;;10.52;61.33;101448.50;5000690;28;20555;-73
2021/10/04 05:34:21;;;;;;;32.30;12.65;;;;;;;10.63;61.17;101454.22;5001866;28;20460;-69
2021/10/04 05:36:46;;;;;;;23.67;9.88;;;;;;;10.65;60.83;101450.94;5002224;28;20029;-69
2021/10/04 05:39:12;;;;;;;24.17;6.63;;;;;;;10.70;60.70;101434.78;5000504;28;20129;-72
2021/10/04 05:41:37;;;;;;;13.65;5.93;;;;;;;10.84;60.80;101451.88;5002327;28;20080;-70
2021/10/04 05:44:03;;;;;;;17.92;8.25;;;;;;;10.84;61.13;101449.28;5001564;28;20099;-70
2021/10/04 05:46:29;;;;;;;14.65;5.80;;;;;;;10.51;61.70;101408.88;5000813;28;20030;-71
2021/10/04 05:48:54;;;;;;;18.88;6.78;;;;;;;10.68;62.09;101445.91;4982693;28;20047;-68
2021/10/04 05:51:20;;;;;;;11.77;5.68;;;;;;;10.75;62.34;101447.13;5002000;28;20045;-69
2021/10/04 05:53:46;;;;;;;10.05;6.13;;;;;;;10.93;62.60;101454.03;5001999;28;20492;-71
2021/10/04 05:56:12;;;;;;;9.23;5.25;;;;;;;10.84;63.03;101452.78;5000467;28;20412;-71
2021/10/04 05:58:38;;;;;;;12.98;5.10;;;;;;;10.56;63.45;101426.31;5001734;28;20026;-70
2021/10/04 06:01:04;;;;;;;13.90;5.97;;;;;;;10.70;63.76;101455.44;5001569;28;20046;-69
2021/10/04 06:03:30;;;;;;;12.55;5.88;;;;;;;10.58;64.00;101441.09;4999882;28;20080;-70
2021/10/04 06:05:56;;;;;;;13.00;7.13;;;;;;;10.95;63.65;101455.91;4975220;28;20050;-71
2021/10/04 06:08:21;;;;;;;15.55;7.95;;;;;;;11.18;62.95;101458.78;5002643;28;20529;-68
2021/10/04 06:10:46;;;;;;;16.40;7.05;;;;;;;11.32;62.67;101459.47;5001432;28;20516;-68
2021/10/04 06:13:12;;;;;;;20.23;6.95;;;;;;;11.54;62.22;101463.09;5002477;28;20076;-68
2021/10/04 06:15:37;;;;;;;16.95;6.68;;;;;;;11.73;61.45;101465.78;5000586;28;20045;-69
2021/10/04 06:18:03;;;;;;;18.10;8.13;;;;;;;11.78;61.12;101461.69;5005398;28;20472;-69
2021/10/04 06:20:28;;;;;;;18.98;7.30;;;;;;;11.82;60.74;101436.88;4976618;28;20038;-69
2021/10/04 06:22:54;;;;;;;20.30;7.53;;;;;;;12.24;60.41;101459.56;5001383;28;20033;-69
2021/10/04 06:25:20;;;;;;;17.17;8.15;;;;;;;12.43;60.32;101467.31;5002638;28;20034;-69
2021/10/04 06:27:49;;;;;;;13.55;7.00;;;;;;;12.61;59.51;101456.91;5001296;28;20026;-69
2021/10/04 06:30:16;;;;;;;15.80;7.13;;;;;;;12.42;59.42;101431.00;5000487;28;20027;-69
2021/10/04 06:32:41;;;;;;;15.32;7.53;;;;;;;12.51;59.79;101456.44;5001320;28;20022;-71
2021/10/04 06:35:08;;;;;;;17.05;7.38;;;;;;;12.54;59.93;101465.22;4995910;28;20096;-68
2021/10/04 06:37:33;;;;;;;16.75;6.85;;;;;;;12.57;60.43;101462.78;5007474;28;20083;-72
2021/10/04 06:39:59;;;;;;;11.93;6.40;;;;;;;12.81;60.06;101464.69;5006145;28;20030;-70
2021/10/04 06:42:25;;;;;;;18.10;6.78;;;;;;;12.72;60.15;101444.44;5013452;28;20041;-69
2021/10/04 06:44:51;;;;;;;14.70;6.43;;;;;;;13.07;59.66;101472.69;5002891;28;20397;-69
2021/10/04 06:47:17;;;;;;;14.38;6.88;;;;;;;12.98;59.77;101430.84;4995216;28;20447;-70
2021/10/04 06:49:42;;;;;;;13.10;7.20;;;;;;;13.25;59.59;101467.41;4995312;28;20172;-69
2021/10/04 06:52:08;;;;;;;14.40;6.18;;;;;;;13.50;59.90;101463.28;4997832;28;20396;-68
2021/10/04 06:54:33;;;;;;;13.73;5.43;;;;;;;13.55;60.77;101444.47;4999663;28;20045;-70
2021/10/04 06:56:59;;;;;;;11.02;6.00;;;;;;;13.73;61.00;101472.88;5005048;28;20038;-68
2021/10/04 06:59:26;;;;;;;12.95;6.32;;;;;;;13.81;62.04;101464.53;5005300;28;20156;-74
2021/10/04 07:01:51;;;;;;;11.20;6.15;;;;;;;13.88;61.59;101463.91;5004473;28;20123;-70
2021/10/04 07:04:17;;;;;;;11.07;5.63;;;;;;;14.01;62.42;101460.97;5011320;28;20527;-70
2021/10/04 07:06:42;;;;;;;13.63;7.13;;;;;;;13.89;62.99;101464.00;5006002;28;20443;-69
2021/10/04 07:09:08;;;;;;;7.63;5.32;;;;;;;13.94;64.31;101458.97;5005004;28;20025;-71
2021/10/04 07:11:33;;;;;;;14.70;5.28;;;;;;;14.02;66.00;101464.47;5003309;28;20101;-70
2021/10/04 07:13:59;;;;;;;8.18;5.75;;;;;;;14.13;66.56;101464.88;5003973;28;20041;-70
2021/10/04 07:16:25;;;;;;;10.57;6.20;;;;;;;13.97;65.61;101427.94;5004751;28;20061;-68
2021/10/04 07:18:50;;;;;;;12.98;5.95;;;;;;;14.47;65.01;101466.16;5004042;28;20452;-68
2021/10/04 07:21:16;;;;;;;12.18;6.35;;;;;;;14.49;64.82;101430.72;5003190;28;20025;-69
2021/10/04 07:23:44;;;;;;;11.23;5.88;;;;;;;14.70;64.36;101451.41;5003653;28;20060;-72
2021/10/04 07:26:10;;;;;;;15.95;6.05;;;;;;;14.93;64.72;101452.25;5004479;28;20018;-70
2021/10/04 07:28:36;;;;;;;10.82;5.68;;;;;;;15.19;62.87;101457.47;5003039;28;20541;-70
2021/10/04 07:31:02;;;;;;;12.40;5.18;;;;;;;15.34;63.01;101449.28;5013460;28;20026;-72
2021/10/04 07:33:28;;;;;;;6.72;3.88;;;;;;;15.67;64.01;101441.66;5004909;28;20034;-68
2021/10/04 07:35:55;;;;;;;7.30;4.25;;;;;;;15.90;63.85;101448.47;4994304;28;20457;-69
2021/10/04 07:38:22;;;;;;;14.80;4.78;;;;;;;16.11;63.44;101445.63;4994477;28;20056;-70
2021/10/04 07:40:47;;;;;;;7.50;4.10;;;;;;;16.23;63.65;101432.09;4993789;28;20054;-70
2021/10/04 07:43:13;;;;;;;8.80;4.63;;;;;;;16.37;62.92;101445.50;4994006;28;20054;-73
2021/10/04 07:45:38;;;;;;;7.63;4.00;;;;;;;16.42;63.49;101443.91;4993905;28;20440;-69
2021/10/04 07:48:04;;;;;;;7.72;4.15;;;;;;;16.40;63.69;101441.28;4993478;28;20752;-72
2021/10/04 07:50:30;;;;;;;9.15;4.63;;;;;;;16.56;63.21;101441.69;5001288;28;20022;-70
2021/10/04 07:52:55;;;;;;;6.97;4.07;;;;;;;16.68;62.53;101441.16;4994142;28;20118;-71
2021/10/04 07:55:22;;;;;;;13.35;4.63;;;;;;;16.79;62.58;101452.78;4994060;28;20050;-70
2021/10/04 07:57:50;;;;;;;8.93;4.38;;;;;;;16.77;63.52;101430.97;4999791;28;20017;-69
2021/10/04 08:00:18;;;;;;;7.85;4.18;;;;;;;16.76;61.86;101455.28;5012643;28;20116;-68
2021/10/04 08:02:43;;;;;;;9.48;4.15;;;;;;;16.88;60.91;101455.63;5013223;28;20109;-72
2021/10/04 08:05:10;;;;;;;8.05;3.78;;;;;;;16.80;60.81;101411.09;5009010;28;20108;-73
2021/10/04 08:07:36;;;;;;;9.60;4.13;;;;;;;16.95;60.67;101446.28;5005804;28;20105;-69
2021/10/04 08:10:03;;;;;;;8.23;4.03;;;;;;;17.14;59.67;101439.81;5004147;28;20604;-69
2021/10/04 08:12:28;;;;;;;6.68;4.38;;;;;;;17.28;59.56;101427.09;5004276;28;20101;-73
2021/10/04 08:14:55;;;;;;;8.27;4.07;;;;;;;17.41;59.29;101446.56;5002990;28;20113;-74
2021/10/04 08:17:21;;;;;;;10.65;3.83;;;;;;;17.49;59.24;101439.78;5002286;28;20072;-72
2021/10/04 08:19:47;;;;;;;8.35;4.65;;;;;;;17.60;59.61;101438.31;5003475;28;20049;-70
2021/10/04 08:22:12;;;;;;;7.55;4.38;;;;;;;17.50;57.94;101417.19;5002756;28;20028;-69
2021/10/04 08:24:39;;;;;;;11.73;5.10;;;;;;;17.49;58.25;101445.00;5001974;28;20097;-69
2021/10/04 08:27:04;;;;;;;10.38;5.03;;;;;;;17.46;59.03;101403.19;5004403;28;20022;-69
2021/10/04 08:29:29;;;;;;;12.68;3.92;;;;;;;17.50;57.55;101399.78;5002646;28;20084;-72
2021/10/04 08:31:55;;;;;;;7.45;3.78;;;;;;;17.61;58.23;101387.88;5003000;28;20053;-73
2021/10/04 08:34:20;;;;;;;10.85;4.55;;;;;;;17.76;57.44;101403.00;5012253;28;20370;-69
2021/10/04 08:36:46;;;;;;;6.95;3.92;;;;;;;17.83;57.76;101427.53;5012514;28;20021;-73
2021/10/04 08:39:11;;;;;;;10.40;4.78;;;;;;;17.83;55.94;101388.34;5012276;28;20048;-72
2021/10/04 08:41:38;;;;;;;10.27;4.97;;;;;;;17.76;56.32;101389.06;5012481;28;20033;-69
2021/10/04 08:44:11;;;;;;;10.65;4.78;;;;;;;17.98;54.59;101413.06;5009077;28;20030;-70
2021/10/04 08:46:38;;;;;;;9.32;4.60;;;;;;;18.05;53.97;101410.63;4993094;28;20070;-70
2021/10/04 08:49:04;;;;;;;13.25;6.35;;;;;;;18.17;53.48;101407.38;4964746;28;20093;-73
2021/10/04 08:51:30;;;;;;;7.68;4.20;;;;;;;18.25;53.02;101404.91;5000097;28;20073;-69
2021/10/04 08:53:55;;;;;;;14.65;4.57;;;;;;;18.42;52.49;101405.28;4993002;28;20454;-70
2021/10/04 08:56:21;;;;;;;7.32;4.00;;;;;;;18.62;51.92;101396.91;4992557;28;20027;-70
2021/10/04 08:58:46;;;;;;;10.23;4.40;;;;;;;18.65;52.43;101370.81;5002175;28;20022;-71
2021/10/04 09:01:11;;;;;;;9.63;4.32;;;;;;;18.81;51.34;101396.41;4994070;28;20026;-69
2021/10/04 09:03:53;;;;;;;14.52;5.70;;;;;;;18.97;50.56;101388.88;4992398;28;20070;-72
2021/10/04 09:06:28;;;;;;;15.55;5.88;;;;;;;18.94;50.14;101388.78;4992474;28;20545;-70
2021/10/04 09:08:55;;;;;;;10.77;4.57;;;;;;;18.92;49.96;101370.47;4992597;28;20038;-69
2021/10/04 09:11:41;;;;;;;10.60;4.03;;;;;;;19.06;50.49;101384.63;4992936;28;20038;-69
2021/10/04 09:14:09;;;;;;;10.25;4.13;;;;;;;19.28;50.87;101373.63;4963046;28;20069;-68
2021/10/04 09:16:54;;;;;;;8.85;3.90;;;;;;;19.23;49.05;101366.59;5005537;28;20088;-70
2021/10/04 09:19:25;;;;;;;12.43;5.03;;;;;;;19.39;50.67;101375.56;5001031;28;20054;-71
2021/10/04 09:22:21;;;;;;;7.68;3.88;;;;;;;19.53;48.66;101374.91;5004529;28;20037;-73
2021/10/04 09:24:49;;;;;;;9.60;3.85;;;;;;;19.71;48.33;101369.03;4958864;28;20489;-71
2021/10/04 09:27:33;;;;;;;10.55;3.80;;;;;;;19.85;48.07;101367.53;4961778;28;20018;-75
2021/10/04 09:30:04;;;;;;;12.48;3.92;;;;;;;19.96;47.59;101369.38;4959293;28;20426;-72
2021/10/04 09:32:41;;;;;;;15.25;5.30;;;;;;;19.93;48.12;101356.25;4959831;28;20031;-71
2021/10/04 09:35:10;;;;;;;15.23;5.00;;;;;;;20.10;47.54;101357.34;4960192;28;20039;-72
2021/10/04 09:37:36;;;;;;;10.95;4.45;;;;;;;20.04;47.36;101352.03;4959159;28;20027;-71
2021/10/04 09:40:03;;;;;;;8.73;4.25;;;;;;;19.86;47.30;101348.31;4960728;28;20105;-73
2021/10/04 09:42:38;;;;;;;7.80;4.00;;;;;;;19.64;47.06;101323.53;4960535;28;20124;-71
2021/10/04 09:45:05;;;;;;;9.77;4.32;;;;;;;19.94;46.90;101345.78;4957475;28;20427;-71
2021/10/04 09:47:34;;;;;;;12.55;4.20;;;;;;;20.05;47.45;101345.94;4959496;28;20050;-70
2021/10/04 09:50:14;;;;;;;9.27;4.28;;;;;;;19.93;47.37;101336.16;4961132;28;20027;-73
2021/10/04 09:52:46;;;;;;;17.77;4.25;;;;;;;19.94;46.43;101339.66;4955815;28;20023;-69
2021/10/04 09:55:14;;;;;;;12.68;4.45;;;;;;;19.87;47.40;101339.56;4944322;28;20047;-71
2021/10/04 09:57:39;;;;;;;12.90;4.43;;;;;;;19.96;47.21;101330.06;4958908;28;20132;-70
2021/10/04 10:00:06;;;;;;;9.45;3.63;;;;;;;19.85;47.04;101340.41;4959869;28;20027;-71
2021/10/04 10:02:31;;;;;;;18.48;3.67;;;;;;;20.06;46.19;101324.06;4984681;28;20025;-71
2021/10/04 10:04:57;;;;;;;7.55;3.38;;;;;;;20.19;46.14;101328.59;5000391;28;20026;-73
2021/10/04 10:07:23;;;;;;;13.07;3.50;;;;;;;20.04;45.42;101324.06;5000447;28;20097;-71
2021/10/04 10:09:49;;;;;;;10.02;3.80;;;;;;;20.09;45.63;101318.88;5010738;28;20109;-72
2021/10/04 10:12:14;;;;;;;44.13;5.63;;;;;;;20.41;45.28;101318.34;5012724;28;20041;-71
2021/10/04 10:14:46;;;;;;;28.50;4.00;;;;;;;20.53;44.51;101292.22;5015601;28;20026;-71
2021/10/04 10:17:20;;;;;;;12.02;3.88;;;;;;;20.87;44.75;101320.50;5015553;28;20492;-74
2021/10/04 10:19:48;;;;;;;11.15;4.03;;;;;;;21.18;43.27;101315.50;5014101;28;20514;-71
2021/10/04 10:22:16;;;;;;;8.73;3.15;;;;;;;21.37;42.22;101318.22;5015490;28;20030;-72
2021/10/04 10:24:43;;;;;;;9.98;3.30;;;;;;;21.48;41.34;101306.03;5015659;28;20084;-71
2021/10/04 10:27:08;;;;;;;6.93;3.40;;;;;;;21.64;41.72;101292.13;5003584;28;20117;-72
2021/10/04 10:29:35;;;;;;;8.63;3.40;;;;;;;21.80;41.40;101310.59;5006741;28;20164;-73
2021/10/04 10:32:00;;;;;;;8.68;3.50;;;;;;;21.65;41.82;101307.03;5008096;28;20029;-74
2021/10/04 10:34:32;;;;;;;8.43;3.20;;;;;;;21.34;41.75;101296.31;5003022;28;20033;-72
2021/10/04 10:37:50;;;;;;;7.22;3.45;;;;;;;21.49;40.76;101286.78;5003237;28;20050;-70
2021/10/04 10:40:17;;;;;;;9.15;3.03;;;;;;;21.39;41.14;101288.47;4933966;29;20040;-70
2021/10/04 10:42:57;;;;;;;7.40;3.28;;;;;;;21.50;41.30;101292.03;4934261;29;20102;-72
2021/10/04 10:45:23;;;;;;;8.93;3.25;;;;;;;21.84;40.49;101285.22;4934689;29;20110;-73
2021/10/04 10:47:49;;;;;;;8.57;3.00;;;;;;;22.07;39.62;101282.63;4933202;29;20066;-72
2021/10/04 10:50:27;;;;;;;7.63;3.28;;;;;;;22.22;39.37;101276.53;4934461;29;20152;-72
2021/10/04 10:52:55;;;;;;;8.43;3.30;;;;;;;22.29;38.28;101270.41;4932079;29;20058;-74
2021/10/04 10:55:21;;;;;;;9.93;3.17;;;;;;;22.31;38.64;101266.03;4934475;29;20131;-74
2021/10/04 10:57:51;;;;;;;11.55;3.35;;;;;;;22.27;38.82;101269.53;4934859;29;20458;-75
2021/10/04 11:00:23;;;;;;;9.32;3.63;;;;;;;22.42;38.42;101238.00;4937762;29;20071;-77
2021/10/04 11:02:54;;;;;;;9.68;3.17;;;;;;;22.54;39.02;101246.78;4945870;29;20040;-74
2021/10/04 11:08:05;;;;;;;12.63;3.00;;;;;;;22.11;38.49;101227.44;4936233;29;20086;-72
2021/10/04 11:10:31;;;;;;;8.95;3.03;;;;;;;22.37;37.93;101234.50;4934512;29;20645;-72
2021/10/04 11:13:09;;;;;;;10.40;2.83;;;;;;;22.44;37.85;101244.16;4937835;28;20110;-70
2021/10/04 11:15:37;;;;;;;7.15;2.72;;;;;;;22.41;39.06;101236.25;5003069;28;20022;-69
2021/10/04 11:18:04;;;;;;;5.70;2.78;;;;;;;22.45;39.61;101239.75;5004188;28;20495;-69
2021/10/04 11:20:30;;;;;;;9.73;3.10;;;;;;;22.42;38.40;101232.75;5005125;28;20034;-71
2021/10/04 11:23:17;;;;;;;11.10;2.90;;;;;;;22.34;37.66;101218.66;5002992;28;20048;-71
2021/10/04 11:25:44;;;;;;;9.32;3.10;;;;;;;22.57;36.67;101231.00;5005261;28;20049;-72
2021/10/04 11:28:12;;;;;;;6.10;2.55;;;;;;;22.82;36.86;101236.19;5004439;28;20025;-72